Oaklawn, Kansas
Current Conditions -  °F | °C
As of 12:58 PM on Thursday 30 Oct 2014 (Local Time) from KIAB Reporting Station
Clear Clear  
Wind Chill: 69°   Ceiling: Unl
Heat Index: 69°   Visibility: 10mi
Dew Point: 35°   Wind: 18mph
Humidity: 28%   Direction: 350°N
Pressure: 30.14"   Gusts: 24mph
Location:  37.6055°N, 97.3205°W
Report Text: KIAB 301758Z AUTO 35016G21KT 10SM CLR 21/02 A3014 RMK AO2 SLP205 T02080018 10208 20086 50009
Loading
Personal Weather Stations






























Interactive Weather Map
Tropical Storm Tracking
New forecast layout! Learn more

10-Day Weather Forecast

Advertisements
Track Severe Weather on mobile